Time;durP1;ratioP1;P1;durP2;ratioP2;P2;SDS_P1;SDS_P2;PMS_P1;PMS_P2;Temp;Humidity;BMP_temperature;BMP_pressure;BME280_temperature;BME280_humidity;BME280_pressure;Samples;Min_cycle;Max_cycle;Signal;HPM_P1;HPM_P2
2021/06/02 00:01:16;;;;;;;3.83;3.20;;;;;;;14.75;50.66;101447.97;5041497;28;20460;-68
2021/06/02 00:03:41;;;;;;;3.57;3.27;;;;;;;14.40;51.54;101459.16;5041414;28;20177;-68
2021/06/02 00:06:07;;;;;;;5.63;3.50;;;;;;;14.19;51.91;101461.63;5044522;28;20406;-68
2021/06/02 00:08:33;;;;;;;2.90;2.70;;;;;;;14.01;52.11;101467.66;5056054;28;20471;-68
2021/06/02 00:10:58;;;;;;;3.40;2.90;;;;;;;14.37;51.51;101459.13;5043257;28;20225;-69
2021/06/02 00:13:24;;;;;;;5.07;3.40;;;;;;;14.44;51.49;101465.28;5040599;28;20448;-68
2021/06/02 00:15:49;;;;;;;3.40;3.10;;;;;;;13.84;52.26;101457.88;5041673;28;20178;-68
2021/06/02 00:18:15;;;;;;;3.37;2.90;;;;;;;14.11;52.02;101457.22;5058749;28;20253;-68
2021/06/02 00:20:40;;;;;;;3.30;3.00;;;;;;;13.99;53.10;101457.16;5051805;28;20223;-68
2021/06/02 00:23:06;;;;;;;3.57;2.87;;;;;;;14.05;52.45;101454.56;5060362;28;20177;-69
2021/06/02 00:25:31;;;;;;;3.63;3.30;;;;;;;13.79;53.64;101452.63;5061464;28;20599;-70
2021/06/02 00:27:57;;;;;;;3.10;2.80;;;;;;;13.67;54.01;101452.53;5058833;28;20196;-67
2021/06/02 00:30:22;;;;;;;3.40;3.10;;;;;;;13.92;53.36;101450.09;5053137;28;20226;-67
2021/06/02 00:32:48;;;;;;;3.53;3.23;;;;;;;14.05;53.18;101449.31;5044922;28;20204;-70
2021/06/02 00:35:16;;;;;;;3.63;2.73;;;;;;;13.79;53.78;101457.88;5040955;28;20174;-68
2021/06/02 00:37:42;;;;;;;4.17;3.87;;;;;;;13.92;53.55;101451.00;5040815;28;20520;-69
2021/06/02 00:40:17;;;;;;;3.90;2.97;;;;;;;13.97;53.63;101456.25;5041044;28;20530;-67
2021/06/02 00:42:44;;;;;;;3.90;3.20;;;;;;;13.74;54.29;101454.31;5040113;28;20447;-68
2021/06/02 00:45:12;;;;;;;3.70;3.33;;;;;;;13.44;55.42;101455.81;5040645;28;20388;-68
2021/06/02 00:47:37;;;;;;;3.53;3.00;;;;;;;13.89;53.97;101453.56;5039596;28;20424;-69
2021/06/02 00:50:05;;;;;;;3.23;2.83;;;;;;;13.57;54.72;101455.94;5035991;28;20432;-68
2021/06/02 00:52:31;;;;;;;3.00;2.80;;;;;;;13.90;53.63;101447.47;5040617;28;20178;-69
2021/06/02 00:54:56;;;;;;;3.07;2.77;;;;;;;13.35;55.61;101455.69;5040079;28;20409;-69
2021/06/02 00:57:24;;;;;;;5.33;2.93;;;;;;;13.56;55.41;101459.44;5040701;28;20477;-69
2021/06/02 01:00:09;;;;;;;3.20;2.90;;;;;;;13.78;54.77;101458.72;5043364;28;20495;-69
2021/06/02 01:02:35;;;;;;;3.17;2.87;;;;;;;13.77;55.07;101457.00;5040551;28;20482;-69
2021/06/02 01:05:02;;;;;;;3.30;3.00;;;;;;;13.48;55.44;101470.69;5039771;28;20817;-68
2021/06/02 01:07:27;;;;;;;2.87;2.60;;;;;;;13.46;56.03;101464.59;5039717;28;20436;-68
2021/06/02 01:09:57;;;;;;;3.50;3.00;;;;;;;13.54;55.06;101461.16;5055078;28;20777;-69
2021/06/02 01:12:28;;;;;;;3.33;2.50;;;;;;;13.53;55.52;101464.63;5060248;28;20260;-68
2021/06/02 01:14:55;;;;;;;3.77;3.10;;;;;;;13.37;56.09;101464.50;5059463;28;20689;-68
2021/06/02 01:17:22;;;;;;;3.27;2.97;;;;;;;13.51;55.67;101466.38;5060275;28;20444;-69
2021/06/02 01:19:48;;;;;;;3.43;2.83;;;;;;;13.65;55.38;101467.34;5048426;28;20473;-68
2021/06/02 01:22:14;;;;;;;2.90;2.60;;;;;;;13.18;56.32;101466.00;5058847;28;20478;-68
2021/06/02 01:24:39;;;;;;;2.90;2.60;;;;;;;13.03;57.35;101464.13;5050009;28;20583;-68
2021/06/02 01:27:07;;;;;;;2.90;2.70;;;;;;;13.62;55.94;101460.34;5039956;28;20177;-68
2021/06/02 01:29:34;;;;;;;3.07;2.70;;;;;;;13.07;57.87;101459.78;5041800;28;20482;-68
2021/06/02 01:32:11;;;;;;;2.80;2.60;;;;;;;12.92;57.97;101464.00;5039672;28;20459;-68
2021/06/02 01:35:13;;;;;;;3.17;2.97;;;;;;;13.83;55.47;101461.41;5044286;28;20450;-68
2021/06/02 01:37:45;;;;;;;4.07;2.90;;;;;;;13.33;57.12;101467.91;5059850;28;20403;-68
2021/06/02 01:40:34;;;;;;;3.13;2.83;;;;;;;14.02;55.37;101462.41;5041945;28;20451;-68
2021/06/02 01:43:57;;;;;;;5.50;3.10;;;;;;;13.32;57.42;101481.84;5039720;28;20414;-68
2021/06/02 01:46:28;;;;;;;4.27;3.00;;;;;;;13.61;56.46;101474.31;5027512;28;20439;-69
2021/06/02 01:49:15;;;;;;;3.90;2.90;;;;;;;13.45;57.00;101472.44;5041435;28;20480;-67
2021/06/02 01:51:43;;;;;;;3.90;3.40;;;;;;;13.84;56.08;101470.13;5039795;28;20428;-68
2021/06/02 01:54:29;;;;;;;3.33;2.60;;;;;;;13.40;57.00;101474.13;5039614;28;20682;-68
2021/06/02 01:57:08;;;;;;;4.83;2.73;;;;;;;13.34;56.91;101474.91;5038831;28;20440;-67
2021/06/02 02:00:01;;;;;;;5.37;3.20;;;;;;;13.72;55.47;101466.56;5047798;28;20444;-68
2021/06/02 02:02:34;;;;;;;3.40;3.10;;;;;;;13.19;57.29;101466.88;5046187;28;20432;-69
2021/06/02 02:05:09;;;;;;;3.93;2.90;;;;;;;13.36;56.52;101467.97;5039387;28;20420;-69
2021/06/02 02:07:59;;;;;;;2.93;2.73;;;;;;;13.69;55.81;101471.75;5038747;28;20566;-69
2021/06/02 02:10:45;;;;;;;3.30;3.00;;;;;;;13.90;54.68;101473.69;5058233;28;20471;-69
2021/06/02 02:13:31;;;;;;;3.70;3.10;;;;;;;13.04;56.90;101473.69;5059257;28;20482;-68
2021/06/02 02:16:19;;;;;;;3.17;2.87;;;;;;;13.48;55.91;101469.84;5057053;28;20439;-68
2021/06/02 02:19:00;;;;;;;3.50;3.20;;;;;;;13.82;54.92;101468.38;5051880;28;20666;-67
2021/06/02 02:21:43;;;;;;;3.43;3.13;;;;;;;13.74;55.35;101456.94;5038503;28;20547;-68
2021/06/02 02:24:11;;;;;;;3.23;2.93;;;;;;;14.26;53.91;101464.31;5038693;28;20434;-68
2021/06/02 02:26:51;;;;;;;5.70;3.40;;;;;;;13.59;56.08;101469.94;5039017;28;20428;-68
2021/06/02 02:29:40;;;;;;;3.20;2.87;;;;;;;13.25;57.15;101474.81;5039633;28;20451;-68
2021/06/02 02:32:43;;;;;;;4.03;3.27;;;;;;;13.22;57.58;101461.66;5038165;28;20433;-68
2021/06/02 02:35:33;;;;;;;3.47;3.17;;;;;;;13.20;57.54;101466.91;5038899;28;20412;-68
2021/06/02 02:38:20;;;;;;;5.00;3.27;;;;;;;12.92;58.96;101465.72;5037629;28;20451;-69
2021/06/02 02:40:50;;;;;;;3.70;3.33;;;;;;;13.21;58.38;101468.66;5038674;28;20396;-69
2021/06/02 02:43:21;;;;;;;4.30;3.10;;;;;;;13.24;57.81;101470.44;5037798;28;20413;-69
2021/06/02 02:45:57;;;;;;;3.20;2.90;;;;;;;12.79;59.25;101476.03;5041607;28;20460;-69
2021/06/02 02:48:37;;;;;;;5.60;3.13;;;;;;;13.44;57.66;101476.78;5039363;28;20714;-69
2021/06/02 02:51:25;;;;;;;3.70;3.00;;;;;;;13.14;58.73;101472.09;5058263;28;20467;-69
2021/06/02 02:54:21;;;;;;;4.23;3.17;;;;;;;13.48;57.38;101475.94;5057901;28;20416;-68
2021/06/02 02:57:00;;;;;;;3.50;3.20;;;;;;;13.08;59.28;101487.72;5056787;28;20461;-69
2021/06/02 02:59:52;;;;;;;3.57;3.27;;;;;;;13.17;59.13;101481.72;5046500;28;20479;-69
2021/06/02 03:02:53;;;;;;;3.43;3.13;;;;;;;13.31;58.90;101481.00;5057453;28;20486;-69
2021/06/02 03:05:24;;;;;;;3.83;3.17;;;;;;;12.98;59.95;101490.22;5057561;28;20501;-69
2021/06/02 03:07:56;;;;;;;3.60;3.30;;;;;;;13.16;59.51;101482.56;5057596;28;20477;-69
2021/06/02 03:10:22;;;;;;;3.60;3.30;;;;;;;12.71;61.02;101484.66;5039385;28;20455;-68
2021/06/02 03:12:47;;;;;;;3.93;3.53;;;;;;;13.10;60.21;101479.00;5037434;28;20436;-68
2021/06/02 03:15:39;;;;;;;3.97;3.57;;;;;;;12.93;60.03;101484.03;5040145;28;20424;-69
2021/06/02 03:18:18;;;;;;;3.80;3.40;;;;;;;13.20;59.30;101479.13;5055144;28;20182;-68
2021/06/02 03:20:59;;;;;;;7.13;3.40;;;;;;;13.05;60.01;101491.16;5037653;28;20495;-69
2021/06/02 03:23:29;;;;;;;4.07;3.60;;;;;;;12.94;60.14;101490.19;5037896;28;20448;-67
2021/06/02 03:26:04;;;;;;;5.70;3.43;;;;;;;13.02;60.06;101488.53;5037074;28;20482;-68
2021/06/02 03:28:50;;;;;;;4.13;3.73;;;;;;;13.47;58.85;101487.28;5039013;28;20478;-69
2021/06/02 03:31:29;;;;;;;4.43;3.63;;;;;;;13.65;58.06;101485.69;5037418;28;20900;-68
2021/06/02 03:34:13;;;;;;;4.13;3.70;;;;;;;13.47;58.67;101487.28;5037423;28;20427;-68
2021/06/02 03:37:00;;;;;;;4.10;3.30;;;;;;;12.80;60.41;101482.16;5037927;28;20409;-68
2021/06/02 03:39:46;;;;;;;4.00;3.57;;;;;;;12.95;59.69;101489.31;5039178;28;20468;-68
2021/06/02 03:42:36;;;;;;;4.13;3.60;;;;;;;13.70;57.60;101494.47;5037886;28;20419;-69
2021/06/02 03:45:36;;;;;;;5.67;4.10;;;;;;;13.27;58.92;101488.78;5038931;28;20429;-69
2021/06/02 03:48:16;;;;;;;5.27;4.00;;;;;;;13.33;58.32;101488.88;5055090;28;20416;-68
2021/06/02 03:50:59;;;;;;;3.90;3.60;;;;;;;12.83;59.65;101489.16;5037840;28;20543;-69
2021/06/02 03:54:02;;;;;;;4.13;3.70;;;;;;;13.72;56.91;101492.75;5053570;28;20644;-69
2021/06/02 03:56:43;;;;;;;7.50;3.20;;;;;;;14.53;54.82;101485.44;5037827;28;20416;-69
2021/06/02 03:59:17;;;;;;;3.63;3.33;;;;;;;15.04;53.38;101486.56;5041472;28;20444;-69
2021/06/02 04:01:55;;;;;;;3.57;3.10;;;;;;;16.13;50.16;101488.44;5038377;28;20440;-68
2021/06/02 04:04:59;;;;;;;3.80;3.50;;;;;;;16.03;49.89;101485.81;5037811;28;20418;-69
2021/06/02 04:07:34;;;;;;;4.03;3.60;;;;;;;15.28;51.78;101488.38;5037770;28;20416;-68
2021/06/02 04:10:14;;;;;;;3.87;3.37;;;;;;;14.02;56.28;101506.97;5037678;28;20960;-68
2021/06/02 04:13:03;;;;;;;4.83;3.87;;;;;;;13.56;57.96;101498.72;5036893;28;20644;-69
2021/06/02 04:15:29;;;;;;;3.93;3.63;;;;;;;13.53;58.27;101506.53;5042341;28;20478;-69
2021/06/02 04:17:54;;;;;;;4.40;3.73;;;;;;;14.40;55.28;101498.50;5056765;28;20440;-68
2021/06/02 04:20:20;;;;;;;7.10;4.20;;;;;;;14.73;54.56;101504.81;5056677;28;20185;-69
2021/06/02 04:22:47;;;;;;;3.73;3.43;;;;;;;14.05;56.67;101509.63;5058174;28;20610;-68
2021/06/02 04:25:18;;;;;;;4.30;3.77;;;;;;;13.67;58.55;101507.56;5060876;28;20226;-68
2021/06/02 04:27:46;;;;;;;5.63;3.70;;;;;;;14.87;55.09;101506.63;5058893;28;20438;-68
2021/06/02 04:30:14;;;;;;;4.17;3.40;;;;;;;14.67;55.85;101498.66;5041446;28;20483;-68
2021/06/02 04:32:44;;;;;;;5.20;4.23;;;;;;;13.48;59.33;101509.13;5040408;28;20555;-68
2021/06/02 04:35:13;;;;;;;4.17;3.77;;;;;;;13.35;59.91;101507.22;5041643;28;20401;-68
2021/06/02 04:37:39;;;;;;;4.40;4.00;;;;;;;13.97;58.43;101513.91;5040958;28;20413;-68
2021/06/02 04:40:06;;;;;;;5.47;4.43;;;;;;;13.99;57.92;101514.84;5046270;28;20435;-69
2021/06/02 04:42:36;;;;;;;5.00;4.27;;;;;;;14.23;57.67;101511.47;5054290;28;20193;-68
2021/06/02 04:45:06;;;;;;;6.37;3.90;;;;;;;14.15;58.44;101516.69;5047364;28;20695;-69
2021/06/02 04:47:33;;;;;;;6.00;4.10;;;;;;;13.58;60.05;101510.94;5040687;28;20476;-69
2021/06/02 04:50:01;;;;;;;4.50;4.10;;;;;;;14.60;57.38;101513.44;5040407;28;20483;-69
2021/06/02 04:52:33;;;;;;;5.37;4.30;;;;;;;14.63;56.34;101518.78;5040478;28;20427;-69
2021/06/02 04:55:26;;;;;;;5.10;3.93;;;;;;;15.80;53.29;101510.38;5040499;28;20445;-69
2021/06/02 04:58:05;;;;;;;3.70;3.40;;;;;;;14.91;55.43;101519.78;5039602;28;20514;-68
2021/06/02 05:00:56;;;;;;;4.83;4.33;;;;;;;16.63;51.15;101515.53;5041920;28;20411;-67
2021/06/02 05:04:04;;;;;;;5.40;4.00;;;;;;;15.94;53.07;101507.72;5056283;28;20449;-68
2021/06/02 05:07:07;;;;;;;5.47;4.00;;;;;;;19.39;44.04;101503.50;5039620;28;20398;-69
2021/06/02 05:09:58;;;;;;;6.30;4.33;;;;;;;16.44;50.32;101519.97;5040299;28;20511;-68
2021/06/02 05:12:41;;;;;;;4.63;4.10;;;;;;;17.03;49.84;101519.78;5039486;28;20511;-68
2021/06/02 05:15:22;;;;;;;4.27;3.90;;;;;;;17.57;48.75;101513.34;5040322;28;20413;-68
2021/06/02 05:18:07;;;;;;;6.17;4.30;;;;;;;18.15;46.85;101509.38;5040479;28;20494;-69
2021/06/02 05:24:11;;;;;;;6.70;4.00;;;;;;;18.14;46.72;101526.09;5040137;28;20660;-68
2021/06/02 05:27:14;;;;;;;8.53;4.73;;;;;;;17.18;49.97;101526.72;5039591;28;20404;-68
2021/06/02 05:29:54;;;;;;;6.73;3.90;;;;;;;19.66;43.49;101512.78;5040096;28;20753;-69
2021/06/02 05:32:29;;;;;;;5.30;4.40;;;;;;;18.52;45.98;101519.53;5039291;28;20517;-69
2021/06/02 05:35:31;;;;;;;5.90;4.30;;;;;;;17.15;50.32;101535.53;5043947;28;20505;-69
2021/06/02 05:38:34;;;;;;;5.10;4.07;;;;;;;18.01;48.42;101528.84;5039308;28;20476;-69
2021/06/02 05:41:27;;;;;;;4.17;3.77;;;;;;;17.40;49.93;101527.50;5039747;28;20461;-69
2021/06/02 05:44:46;;;;;;;5.90;4.77;;;;;;;19.24;45.89;101519.56;5039591;28;20437;-68
2021/06/02 05:47:33;;;;;;;4.30;3.90;;;;;;;19.10;45.18;101530.34;5064813;28;20467;-68
2021/06/02 05:50:19;;;;;;;4.27;3.90;;;;;;;17.38;49.38;101541.56;5067616;28;20438;-69
2021/06/02 05:53:03;;;;;;;4.70;4.20;;;;;;;17.04;51.19;101532.09;5042025;28;20578;-69
2021/06/02 05:55:51;;;;;;;5.40;4.00;;;;;;;18.45;48.14;101531.94;5039078;28;20421;-69
2021/06/02 05:58:57;;;;;;;5.43;4.93;;;;;;;17.46;50.85;101530.09;5050255;28;20565;-70
2021/06/02 06:01:43;;;;;;;4.57;3.90;;;;;;;19.26;46.45;101521.31;5054122;28;20449;-69
2021/06/02 06:04:21;;;;;;;4.37;4.07;;;;;;;21.07;41.67;101525.22;5053890;28;20497;-69
2021/06/02 06:07:01;;;;;;;4.47;3.97;;;;;;;18.93;45.79;101526.16;5039327;28;20419;-69
2021/06/02 06:09:49;;;;;;;4.70;4.10;;;;;;;19.02;45.81;101527.78;5041627;28;20463;-69
2021/06/02 06:12:42;;;;;;;6.03;4.17;;;;;;;17.66;48.89;101532.59;5042679;28;20463;-69
2021/06/02 06:15:32;;;;;;;5.20;3.90;;;;;;;17.58;49.71;101529.13;5055413;28;20446;-69
2021/06/02 06:18:05;;;;;;;9.00;4.03;;;;;;;18.82;47.30;101523.63;5041801;28;20824;-68
2021/06/02 06:20:46;;;;;;;5.10;4.13;;;;;;;18.69;46.92;101524.66;5040220;28;20838;-68
2021/06/02 06:23:46;;;;;;;11.30;4.80;;;;;;;19.42;45.13;101516.66;5042457;28;20685;-68
2021/06/02 06:26:30;;;;;;;5.70;4.00;;;;;;;18.25;48.22;101526.88;5036601;28;20484;-67
2021/06/02 06:29:12;;;;;;;4.50;3.70;;;;;;;20.07;43.45;101517.44;5047147;28;20449;-69
2021/06/02 06:31:42;;;;;;;7.80;4.10;;;;;;;19.25;45.01;101527.47;5044995;28;20855;-69
2021/06/02 06:34:13;;;;;;;6.83;4.50;;;;;;;19.35;44.83;101520.31;5039801;28;20544;-67
2021/06/02 06:36:39;;;;;;;6.53;3.90;;;;;;;18.06;48.63;101531.44;5040753;28;20422;-69
2021/06/02 06:39:34;;;;;;;4.97;3.77;;;;;;;18.17;47.11;101526.94;5039655;28;20453;-69
2021/06/02 06:42:00;;;;;;;5.23;4.33;;;;;;;18.94;46.18;101527.91;5039166;28;20423;-68
2021/06/02 06:44:26;;;;;;;5.10;3.80;;;;;;;20.46;42.75;101523.78;5041527;28;20427;-69
2021/06/02 06:46:56;;;;;;;4.70;4.30;;;;;;;21.12;40.73;101526.00;5050795;28;20434;-68
2021/06/02 06:49:25;;;;;;;8.20;4.00;;;;;;;21.34;39.94;101521.13;5049778;28;20510;-69
2021/06/02 06:51:54;;;;;;;5.67;4.40;;;;;;;22.84;37.95;101512.84;5042009;28;20459;-69
2021/06/02 06:54:23;;;;;;;8.00;3.90;;;;;;;19.04;44.95;101535.69;5058421;28;20486;-70
2021/06/02 06:56:50;;;;;;;6.17;4.30;;;;;;;20.20;42.86;101524.25;5044594;28;20456;-70
2021/06/02 06:59:16;;;;;;;4.60;3.70;;;;;;;21.33;40.83;101517.56;5045493;28;20422;-69
2021/06/02 07:01:42;;;;;;;4.50;4.00;;;;;;;20.11;43.40;101514.72;5054361;28;20450;-70
2021/06/02 07:04:08;;;;;;;5.07;4.50;;;;;;;21.15;41.18;101510.91;5053577;28;20448;-75
2021/06/02 07:06:37;;;;;;;4.90;4.23;;;;;;;19.68;44.44;101512.75;5047961;28;20531;-72
2021/06/02 07:09:03;;;;;;;4.50;4.07;;;;;;;19.90;43.60;101512.44;5050491;28;20197;-70
2021/06/02 07:11:35;;;;;;;4.97;4.40;;;;;;;20.45;43.04;101515.88;5043565;28;20556;-70
2021/06/02 07:14:01;;;;;;;7.53;4.07;;;;;;;19.89;43.81;101510.69;5047890;28;20553;-70
2021/06/02 07:16:27;;;;;;;5.50;4.40;;;;;;;17.90;48.86;101530.69;5052110;28;20519;-70
2021/06/02 07:18:56;;;;;;;4.10;3.80;;;;;;;17.81;48.73;101517.56;5045495;28;20626;-70
2021/06/02 07:21:21;;;;;;;4.17;3.77;;;;;;;18.37;47.64;101520.59;5055158;28;20231;-70
2021/06/02 07:23:47;;;;;;;4.97;3.60;;;;;;;18.55;47.67;101514.25;5047496;28;20479;-69
2021/06/02 07:26:12;;;;;;;5.07;4.57;;;;;;;19.41;45.35;101511.41;5057628;28;20252;-70
2021/06/02 07:28:40;;;;;;;5.47;4.30;;;;;;;18.85;46.68;101512.13;5037978;28;20193;-70
2021/06/02 07:31:07;;;;;;;6.13;4.57;;;;;;;19.09;46.55;101510.97;5057845;28;20288;-70
2021/06/02 07:33:33;;;;;;;6.50;4.10;;;;;;;18.77;45.83;101514.88;5055235;28;20448;-70
2021/06/02 07:35:59;;;;;;;4.60;3.93;;;;;;;18.96;46.63;101507.59;5055503;28;20436;-70
2021/06/02 07:38:24;;;;;;;4.97;4.30;;;;;;;17.30;49.97;101524.03;5043111;28;20559;-69
2021/06/02 07:40:49;;;;;;;4.80;4.30;;;;;;;19.16;46.89;101515.28;5038523;28;20217;-70
2021/06/02 07:43:15;;;;;;;5.03;4.23;;;;;;;19.33;45.86;101514.16;5046420;28;20508;-70
2021/06/02 07:45:41;;;;;;;5.03;3.90;;;;;;;19.76;44.28;101510.84;5038611;28;20477;-71
2021/06/02 07:48:07;;;;;;;4.57;3.90;;;;;;;20.37;43.53;101508.06;5041001;28;20414;-72
2021/06/02 07:50:32;;;;;;;4.55;4.00;;;;;;;19.16;45.64;101509.13;5049355;28;20437;-67
2021/06/02 07:52:58;;;;;;;4.50;4.10;;;;;;;20.56;42.69;101511.22;5052115;28;20177;-67
2021/06/02 07:55:23;;;;;;;4.30;3.90;;;;;;;18.80;46.52;101513.97;5049008;28;20261;-70
2021/06/02 07:57:48;;;;;;;5.20;4.70;;;;;;;20.86;41.68;101504.47;5045225;28;20276;-69
2021/06/02 08:00:14;;;;;;;5.00;4.43;;;;;;;20.42;43.33;101516.78;5054713;28;20447;-68
2021/06/02 08:02:40;;;;;;;4.83;4.40;;;;;;;23.43;35.17;101496.91;5049479;28;20546;-70
2021/06/02 08:05:06;;;;;;;5.33;3.80;;;;;;;21.96;38.31;101493.97;5046118;28;21314;-69
2021/06/02 08:07:31;;;;;;;6.20;3.77;;;;;;;22.12;38.32;101494.47;5046069;28;20224;-69
2021/06/02 08:09:57;;;;;;;6.73;3.87;;;;;;;22.34;37.76;101509.81;5045581;28;20473;-68
2021/06/02 08:12:22;;;;;;;5.03;4.20;;;;;;;20.86;40.85;101503.59;5045816;28;20178;-68
2021/06/02 08:14:47;;;;;;;4.33;3.93;;;;;;;21.53;40.49;101511.84;5041081;28;20268;-68
2021/06/02 08:17:13;;;;;;;5.13;3.70;;;;;;;20.31;42.65;101505.50;5048884;28;20534;-68
2021/06/02 08:19:38;;;;;;;8.13;3.63;;;;;;;19.46;43.23;101520.16;5049459;28;20465;-68
2021/06/02 08:22:05;;;;;;;7.20;3.97;;;;;;;22.81;36.98;101491.69;5040654;28;20182;-69
2021/06/02 08:24:30;;;;;;;4.57;3.90;;;;;;;24.32;33.66;101487.72;5046399;28;20280;-69
2021/06/02 08:26:56;;;;;;;4.97;3.60;;;;;;;21.33;39.76;101501.66;5040078;28;20444;-68
2021/06/02 08:29:21;;;;;;;4.63;4.10;;;;;;;21.27;40.28;101490.31;5060430;28;20200;-69
2021/06/02 08:31:46;;;;;;;4.90;3.90;;;;;;;20.60;40.81;101494.38;5057037;28;20217;-67
2021/06/02 08:34:11;;;;;;;3.73;3.43;;;;;;;21.27;39.25;101492.97;5040308;28;20208;-68
2021/06/02 08:36:37;;;;;;;5.20;3.40;;;;;;;20.82;39.89;101492.19;5042475;28;20220;-67
2021/06/02 08:39:05;;;;;;;4.40;3.80;;;;;;;21.78;37.81;101489.13;5052908;28;20193;-68
2021/06/02 08:41:31;;;;;;;5.70;4.37;;;;;;;22.90;36.50;101489.66;5057854;28;20224;-67
2021/06/02 08:43:56;;;;;;;4.70;3.87;;;;;;;22.36;36.42;101490.25;5045590;28;20489;-69
2021/06/02 08:46:22;;;;;;;4.33;3.70;;;;;;;20.68;40.02;101504.81;5043369;28;20538;-69
2021/06/02 08:48:49;;;;;;;3.70;3.40;;;;;;;21.55;39.23;101493.22;5051233;28;20200;-68
2021/06/02 08:51:18;;;;;;;4.33;3.87;;;;;;;21.11;39.76;101495.97;5046069;28;20198;-67
2021/06/02 08:53:46;;;;;;;4.67;4.27;;;;;;;21.58;38.33;101498.47;5049818;28;20399;-67
2021/06/02 08:56:12;;;;;;;3.90;3.60;;;;;;;21.51;38.25;101489.75;5049727;28;20492;-67
2021/06/02 08:58:37;;;;;;;3.97;3.57;;;;;;;23.45;35.29;101487.06;5048972;28;20433;-67
2021/06/02 09:01:03;;;;;;;4.20;3.80;;;;;;;24.32;32.75;101477.06;5041446;28;20221;-66
2021/06/02 09:03:32;;;;;;;4.33;3.90;;;;;;;24.92;32.85;101474.81;5040037;28;20220;-67
2021/06/02 09:05:58;;;;;;;4.13;3.80;;;;;;;20.84;39.54;101490.38;5059382;28;20531;-67
2021/06/02 09:08:24;;;;;;;7.40;4.10;;;;;;;20.47;40.99;101503.44;5046928;28;20471;-67
2021/06/02 09:10:50;;;;;;;4.63;4.10;;;;;;;20.26;40.77;101486.22;5040515;28;20555;-67
2021/06/02 09:13:16;;;;;;;7.50;3.90;;;;;;;22.09;37.83;101475.94;5047937;28;20530;-66
2021/06/02 09:15:44;;;;;;;6.73;4.20;;;;;;;21.39;38.61;101476.75;5044911;28;20178;-66
2021/06/02 09:18:18;;;;;;;4.63;3.70;;;;;;;22.06;36.59;101489.28;5047140;28;20443;-65
2021/06/02 09:20:52;;;;;;;4.80;3.60;;;;;;;21.35;38.53;101488.34;5048825;28;20440;-67
2021/06/02 09:23:35;;;;;;;4.73;3.70;;;;;;;20.52;40.37;101491.00;5053835;28;20471;-67
2021/06/02 09:26:10;;;;;;;4.90;4.00;;;;;;;22.55;36.40;101476.47;5055654;28;20483;-67
2021/06/02 09:29:11;;;;;;;3.80;3.50;;;;;;;22.00;37.43;101494.75;5039595;28;20449;-67
2021/06/02 09:31:42;;;;;;;6.90;3.83;;;;;;;24.07;33.91;101472.59;5044678;28;20500;-68
2021/06/02 09:34:17;;;;;;;5.20;4.17;;;;;;;26.55;29.20;101464.44;5053299;28;20451;-68
2021/06/02 09:36:44;;;;;;;4.77;3.63;;;;;;;24.53;32.16;101481.59;5050855;28;20703;-67
2021/06/02 09:39:12;;;;;;;4.57;4.17;;;;;;;23.66;33.79;101466.88;5054348;28;20444;-67
2021/06/02 09:41:51;;;;;;;5.77;4.07;;;;;;;23.50;34.10;101483.38;5048223;28;20528;-68
2021/06/02 09:44:20;;;;;;;7.43;4.10;;;;;;;21.07;39.59;101490.75;5046910;28;20444;-67
2021/06/02 09:47:04;;;;;;;6.10;4.30;;;;;;;21.82;37.76;101482.84;5059218;28;20412;-68
2021/06/02 09:49:44;;;;;;;8.40;4.20;;;;;;;23.20;35.47;101472.78;5042051;28;20853;-68
2021/06/02 09:52:10;;;;;;;7.00;3.87;;;;;;;23.28;35.00;101477.00;5043010;28;20453;-68
2021/06/02 09:54:35;;;;;;;6.20;4.10;;;;;;;23.21;34.99;101479.81;5061324;28;20477;-68
2021/06/02 09:57:09;;;;;;;4.20;3.80;;;;;;;22.40;36.01;101483.09;5050331;28;20185;-68
2021/06/02 09:59:52;;;;;;;4.70;4.00;;;;;;;22.40;37.02;101483.09;5044496;28;20209;-67
2021/06/02 10:02:17;;;;;;;4.30;3.90;;;;;;;23.57;35.25;101476.06;5042653;28;20444;-69
2021/06/02 10:04:43;;;;;;;3.83;3.53;;;;;;;24.79;32.62;101469.09;5048502;28;20437;-69
2021/06/02 10:07:19;;;;;;;7.20;3.93;;;;;;;21.74;37.43;101477.72;5039682;28;20465;-73
2021/06/02 10:09:44;;;;;;;4.50;3.97;;;;;;;22.21;37.35;101472.06;5045012;28;20181;-68
2021/06/02 10:12:11;;;;;;;6.10;4.00;;;;;;;21.69;38.48;101476.97;5050534;28;20448;-68
2021/06/02 10:14:41;;;;;;;6.30;3.60;;;;;;;22.57;35.68;101468.44;5041141;28;20174;-69
2021/06/02 10:17:29;;;;;;;5.50;4.43;;;;;;;23.27;34.40;101475.25;5040986;28;20452;-68
2021/06/02 10:19:55;;;;;;;4.10;3.70;;;;;;;23.79;34.25;101459.34;5038132;28;20433;-72
2021/06/02 10:22:30;;;;;;;5.90;4.17;;;;;;;24.01;33.91;101463.03;5038626;28;20432;-69
2021/06/02 10:24:58;;;;;;;8.23;4.13;;;;;;;22.68;36.27;101467.22;5042983;28;20764;-68
2021/06/02 10:27:24;;;;;;;5.03;3.80;;;;;;;23.91;33.85;101461.63;5050022;28;20447;-69
2021/06/02 10:29:50;;;;;;;4.73;4.20;;;;;;;22.88;36.12;101463.13;5041637;28;20444;-67
2021/06/02 10:32:17;;;;;;;4.57;4.17;;;;;;;23.72;34.21;101464.03;5040682;28;20465;-67
2021/06/02 10:34:43;;;;;;;5.80;3.77;;;;;;;23.41;34.85;101457.06;5044519;28;20444;-67
2021/06/02 10:37:12;;;;;;;6.40;4.50;;;;;;;20.86;40.08;101479.72;5051602;28;20428;-66
2021/06/02 10:39:38;;;;;;;4.43;3.80;;;;;;;21.40;39.47;101457.28;5043093;28;20965;-67
2021/06/02 10:42:28;;;;;;;4.93;4.17;;;;;;;21.47;38.80;101458.91;5042219;28;20857;-67
2021/06/02 10:44:59;;;;;;;4.70;4.30;;;;;;;20.42;41.12;101470.88;5042225;28;20716;-67
2021/06/02 10:47:26;;;;;;;5.90;4.40;;;;;;;19.70;42.17;101466.00;5053012;28;20443;-67
2021/06/02 10:49:52;;;;;;;6.03;4.27;;;;;;;20.62;40.86;101468.72;5052246;28;20844;-66
2021/06/02 10:52:38;;;;;;;4.40;4.00;;;;;;;20.84;40.37;101469.16;5047267;28;20414;-65
2021/06/02 10:55:35;;;;;;;6.00;4.27;;;;;;;20.92;40.29;101469.00;5045705;28;20848;-67
2021/06/02 10:58:14;;;;;;;8.63;4.43;;;;;;;21.92;37.78;101454.25;5041214;28;20450;-66
2021/06/02 11:00:39;;;;;;;5.10;4.40;;;;;;;20.97;40.08;101459.19;5048752;28;20496;-66
2021/06/02 11:03:21;;;;;;;5.30;4.47;;;;;;;22.98;36.54;101437.97;5049309;28;20440;-66
2021/06/02 11:05:56;;;;;;;4.13;3.83;;;;;;;22.33;37.76;101447.81;5047791;28;20215;-66
2021/06/02 11:08:21;;;;;;;6.23;4.00;;;;;;;24.23;33.96;101448.06;5055564;28;20706;-68
2021/06/02 11:10:52;;;;;;;6.80;3.93;;;;;;;23.59;34.83;101444.06;5054189;28;20519;-68
2021/06/02 11:13:18;;;;;;;5.90;4.30;;;;;;;22.91;35.42;101446.16;5055223;28;20177;-68
2021/06/02 11:15:45;;;;;;;5.10;3.90;;;;;;;24.13;35.40;101448.41;5057988;28;20408;-60
2021/06/02 11:18:10;;;;;;;7.03;4.00;;;;;;;26.22;30.55;101443.66;5057760;28;20196;-59
2021/06/02 11:21:01;;;;;;;4.30;4.00;;;;;;;23.95;34.04;101449.94;5054643;28;20424;-61
2021/06/02 11:23:32;;;;;;;5.53;3.93;;;;;;;21.86;38.20;101456.16;5045861;28;20207;-67
2021/06/02 11:26:23;;;;;;;5.00;4.60;;;;;;;22.29;37.11;101462.09;5054667;28;20497;-67
2021/06/02 11:28:49;;;;;;;5.63;4.80;;;;;;;22.39;37.26;101449.47;5057534;28;20423;-67
2021/06/02 11:31:27;;;;;;;6.20;4.23;;;;;;;22.03;37.62;101452.22;5054925;28;20525;-67
2021/06/02 11:34:25;;;;;;;5.63;4.80;;;;;;;23.87;35.04;101450.16;5043785;28;20606;-69
2021/06/02 11:36:59;;;;;;;5.20;4.40;;;;;;;22.92;36.56;101446.16;5059707;28;20450;-66
2021/06/02 11:39:24;;;;;;;5.40;4.63;;;;;;;22.36;37.72;101447.75;5063921;28;20424;-69
2021/06/02 11:41:50;;;;;;;6.10;4.40;;;;;;;22.90;36.26;101439.13;5062097;28;20450;-68
2021/06/02 11:44:16;;;;;;;7.87;4.77;;;;;;;23.25;36.49;101446.03;5044138;28;20228;-68
2021/06/02 11:46:48;;;;;;;6.20;4.30;;;;;;;22.16;37.52;101442.09;5042696;28;20308;-68
2021/06/02 11:49:26;;;;;;;4.30;4.00;;;;;;;22.58;37.34;101441.81;5058747;28;20841;-69
2021/06/02 11:51:55;;;;;;;8.60;4.47;;;;;;;22.80;37.63;101433.22;5063098;28;20470;-69
2021/06/02 11:54:20;;;;;;;8.97;4.57;;;;;;;22.92;37.16;101437.28;5078573;28;20423;-69
2021/06/02 11:56:46;;;;;;;4.87;4.47;;;;;;;22.69;37.54;101434.44;5084251;28;20548;-69
2021/06/02 11:59:11;;;;;;;4.70;4.30;;;;;;;22.66;37.33;101461.09;5068496;28;20190;-69
2021/06/02 12:01:37;;;;;;;4.70;4.20;;;;;;;22.20;38.65;101444.66;5045453;28;20437;-69